Time;durP1;ratioP1;P1;durP2;ratioP2;P2;SDS_P1;SDS_P2;PMS_P1;PMS_P2;Temp;Humidity;BMP_temperature;BMP_pressure;BME280_temperature;BME280_humidity;BME280_pressure;Samples;Min_cycle;Max_cycle;Signal;HPM_P1;HPM_P2
2023/08/09 00:00:10;;;;;;;5.75;3.40;;;16.30;99.90;;;;;;5028649;28;20142;-46
2023/08/09 00:02:38;;;;;;;7.80;3.60;;;16.30;99.90;;;;;;5029954;28;20092;-46
2023/08/09 00:05:06;;;;;;;4.85;3.33;;;16.20;99.90;;;;;;5028995;28;20047;-46
2023/08/09 00:07:34;;;;;;;6.40;3.13;;;16.10;99.90;;;;;;5029128;28;20510;-46
2023/08/09 00:10:01;;;;;;;6.53;3.17;;;16.00;99.90;;;;;;5024991;28;20442;-44
2023/08/09 00:12:29;;;;;;;8.60;3.30;;;16.00;99.90;;;;;;5027294;28;20398;-48
2023/08/09 00:14:56;;;;;;;6.90;3.45;;;15.90;99.90;;;;;;5025996;28;20049;-50
2023/08/09 00:17:23;;;;;;;5.93;3.10;;;15.80;99.90;;;;;;5021753;28;20053;-50
2023/08/09 00:19:51;;;;;;;6.50;3.50;;;15.70;99.90;;;;;;5023088;28;20060;-52
2023/08/09 00:22:18;;;;;;;5.93;3.28;;;15.60;99.90;;;;;;5025008;28;20192;-52
2023/08/09 00:24:45;;;;;;;7.05;3.10;;;15.60;99.90;;;;;;5026794;28;20200;-53
2023/08/09 00:27:13;;;;;;;6.60;3.50;;;15.60;99.90;;;;;;5025889;28;20052;-52
2023/08/09 00:29:40;;;;;;;8.05;3.47;;;15.50;99.90;;;;;;5024640;28;20052;-52
2023/08/09 00:32:07;;;;;;;6.25;3.13;;;15.40;99.90;;;;;;5026029;28;20054;-50
2023/08/09 00:34:35;;;;;;;5.45;3.30;;;15.30;99.90;;;;;;5027177;28;20506;-52
2023/08/09 00:37:02;;;;;;;8.93;3.30;;;15.20;99.90;;;;;;5026700;28;20102;-51
2023/08/09 00:39:30;;;;;;;7.07;3.80;;;15.20;99.90;;;;;;5025086;28;20565;-55
2023/08/09 00:41:57;;;;;;;5.70;3.25;;;15.20;99.90;;;;;;5021854;28;20080;-51
2023/08/09 00:44:25;;;;;;;7.50;3.42;;;15.10;99.90;;;;;;5019328;28;20124;-52
2023/08/09 00:46:52;;;;;;;4.57;3.17;;;15.10;99.90;;;;;;5025324;28;20048;-55
2023/08/09 00:49:20;;;;;;;7.95;3.00;;;15.00;99.90;;;;;;5024912;28;20045;-54
2023/08/09 00:51:48;;;;;;;5.80;3.17;;;15.00;99.90;;;;;;5025054;28;20045;-54
2023/08/09 00:54:17;;;;;;;7.72;4.07;;;14.90;99.90;;;;;;5025619;28;20053;-50
2023/08/09 00:56:45;;;;;;;6.63;3.38;;;14.80;99.90;;;;;;5025100;28;20100;-51
2023/08/09 00:59:13;;;;;;;6.15;2.92;;;14.80;99.90;;;;;;5023916;28;20525;-53
2023/08/09 01:01:40;;;;;;;5.78;3.30;;;14.90;99.90;;;;;;5025930;28;20064;-54
2023/08/09 01:04:08;;;;;;;8.88;4.03;;;14.90;99.90;;;;;;5025716;28;20564;-54
2023/08/09 01:06:55;;;;;;;6.82;4.13;;;14.90;99.90;;;;;;5026337;28;20521;-48
2023/08/09 01:09:29;;;;;;;7.65;3.20;;;14.90;99.90;;;;;;5025748;28;20049;-56
2023/08/09 01:12:02;;;;;;;4.82;2.92;;;14.90;99.90;;;;;;5025032;28;20038;-49
2023/08/09 01:14:31;;;;;;;6.78;2.88;;;14.90;99.90;;;;;;5019870;28;20068;-52
2023/08/09 01:17:01;;;;;;;8.10;3.65;;;14.90;99.90;;;;;;5023476;28;20458;-53
2023/08/09 01:19:35;;;;;;;5.55;3.20;;;14.90;99.90;;;;;;5019125;28;20585;-53
2023/08/09 01:22:17;;;;;;;7.38;3.67;;;14.80;99.90;;;;;;5024682;28;20049;-49
2023/08/09 01:24:45;;;;;;;7.40;3.28;;;14.80;99.90;;;;;;5025989;28;20068;-55
2023/08/09 01:27:13;;;;;;;8.20;3.90;;;14.80;99.90;;;;;;5022244;28;20038;-55
2023/08/09 01:29:41;;;;;;;6.82;3.25;;;14.80;99.90;;;;;;5026754;28;20145;-53
2023/08/09 01:32:08;;;;;;;8.38;3.80;;;14.70;99.90;;;;;;5024183;28;20061;-50
2023/08/09 01:34:38;;;;;;;9.23;3.90;;;14.70;99.90;;;;;;5021672;28;20045;-55
2023/08/09 01:37:19;;;;;;;7.13;3.75;;;14.80;99.90;;;;;;5008509;28;20038;-49
2023/08/09 01:39:50;;;;;;;6.70;3.80;;;14.70;99.90;;;;;;5025628;28;20551;-52
2023/08/09 01:42:19;;;;;;;11.57;4.55;;;14.60;99.90;;;;;;5025017;28;20568;-52
2023/08/09 01:44:47;;;;;;;8.43;4.05;;;14.60;99.90;;;;;;5026004;28;20053;-47
2023/08/09 01:47:15;;;;;;;8.15;4.28;;;14.60;99.90;;;;;;5023807;28;20081;-52
2023/08/09 01:49:47;;;;;;;9.18;4.18;;;14.60;99.90;;;;;;5025595;28;20045;-53
2023/08/09 01:52:15;;;;;;;;;;;14.60;99.90;;;;;;5025468;28;20034;-50
2023/08/09 01:54:43;;;;;;;6.82;4.05;;;14.60;99.90;;;;;;5026942;28;19924;-56
2023/08/09 01:57:11;;;;;;;8.48;4.53;;;14.60;99.90;;;;;;5025584;28;20045;-53
2023/08/09 01:59:39;;;;;;;7.18;4.47;;;14.60;99.90;;;;;;5025081;28;20589;-52
2023/08/09 02:02:06;;;;;;;8.57;3.90;;;14.60;99.90;;;;;;5025427;28;20108;-49
2023/08/09 02:04:33;;;;;;;11.73;4.40;;;14.60;99.90;;;;;;5026513;28;20057;-49
2023/08/09 02:07:01;;;;;;;7.72;4.07;;;14.60;99.90;;;;;;5026342;28;20077;-53
2023/08/09 02:09:29;;;;;;;8.23;4.75;;;14.60;99.90;;;;;;5027533;28;20421;-48
2023/08/09 02:11:57;;;;;;;6.55;3.90;;;14.50;99.90;;;;;;5027908;28;20143;-50
2023/08/09 02:14:24;;;;;;;5.82;3.55;;;14.50;99.90;;;;;;5020058;28;20057;-49
2023/08/09 02:16:52;;;;;;;7.07;3.65;;;14.50;99.90;;;;;;5025928;28;20053;-49
2023/08/09 02:19:20;;;;;;;7.07;3.97;;;14.50;99.90;;;;;;5025832;28;20125;-49
2023/08/09 02:21:47;;;;;;;6.78;3.83;;;14.50;99.90;;;;;;5026065;28;20481;-50
2023/08/09 02:24:15;;;;;;;8.27;4.28;;;14.50;99.90;;;;;;5024878;28;20057;-53
2023/08/09 02:26:42;;;;;;;8.32;4.13;;;14.40;99.90;;;;;;5027748;28;20128;-53
2023/08/09 02:29:10;;;;;;;8.75;3.83;;;14.40;99.90;;;;;;5031094;28;20057;-49
2023/08/09 02:31:38;;;;;;;8.32;3.63;;;14.40;99.90;;;;;;5029585;28;20053;-51
2023/08/09 02:34:05;;;;;;;7.63;3.95;;;14.40;99.90;;;;;;5028796;28;20057;-52
2023/08/09 02:36:33;;;;;;;9.38;3.80;;;14.40;99.90;;;;;;5029691;28;20135;-55
2023/08/09 02:39:01;;;;;;;7.38;3.58;;;14.40;99.90;;;;;;5042570;28;20041;-49
2023/08/09 02:41:28;;;;;;;9.45;4.18;;;14.40;99.90;;;;;;5028586;28;20124;-48
2023/08/09 02:43:56;;;;;;;7.00;4.07;;;14.40;99.90;;;;;;5030502;28;20513;-49
2023/08/09 02:46:23;;;;;;;6.68;3.33;;;14.40;99.90;;;;;;5031158;28;20053;-52
2023/08/09 02:48:50;;;;;;;8.98;3.78;;;14.40;99.90;;;;;;5027957;28;20069;-56
2023/08/09 02:51:18;;;;;;;7.97;4.40;;;14.30;99.90;;;;;;5043808;28;20145;-52
2023/08/09 02:54:03;;;;;;;10.55;4.25;;;14.30;99.90;;;;;;5028902;28;20065;-52
2023/08/09 02:56:31;;;;;;;6.35;3.78;;;14.30;99.90;;;;;;5025049;28;20053;-57
2023/08/09 02:59:00;;;;;;;9.57;4.07;;;14.30;99.90;;;;;;5027503;28;20627;-51
2023/08/09 03:01:29;;;;;;;8.80;4.57;;;14.30;99.90;;;;;;5030276;28;20057;-51
2023/08/09 03:03:58;;;;;;;8.25;4.60;;;14.30;99.90;;;;;;5024274;28;20103;-49
2023/08/09 03:06:25;;;;;;;8.45;4.13;;;14.30;99.90;;;;;;5022595;28;20515;-52
2023/08/09 03:08:53;;;;;;;9.25;4.38;;;14.30;99.90;;;;;;5027680;28;20479;-50
2023/08/09 03:11:23;;;;;;;8.77;4.20;;;14.30;99.90;;;;;;5025874;28;20061;-50
2023/08/09 03:13:51;;;;;;;10.32;4.60;;;14.30;99.90;;;;;;5027535;28;20044;-57
2023/08/09 03:16:20;;;;;;;8.57;4.68;;;14.30;99.90;;;;;;5025669;28;20103;-51
2023/08/09 03:18:48;;;;;;;7.10;4.55;;;14.30;99.90;;;;;;5028099;28;20049;-50
2023/08/09 03:21:16;;;;;;;8.35;4.55;;;14.30;99.90;;;;;;5027152;28;20049;-47
2023/08/09 03:23:43;;;;;;;6.80;4.40;;;14.30;99.90;;;;;;5026945;28;20103;-52
2023/08/09 03:26:11;;;;;;;8.10;4.30;;;14.30;99.90;;;;;;5026173;28;20140;-53
2023/08/09 03:28:39;;;;;;;9.13;4.68;;;14.30;99.90;;;;;;5027208;28;20591;-51
2023/08/09 03:31:08;;;;;;;7.80;4.45;;;14.30;99.90;;;;;;5023982;28;20128;-54
2023/08/09 03:33:38;;;;;;;7.32;4.32;;;14.40;99.90;;;;;;5012287;28;20073;-52
2023/08/09 03:36:06;;;;;;;8.68;4.22;;;14.30;99.90;;;;;;5024871;28;20042;-55
2023/08/09 03:38:33;;;;;;;8.05;4.63;;;14.30;99.90;;;;;;5027675;28;20077;-49
2023/08/09 03:41:01;;;;;;;7.55;4.82;;;14.30;99.90;;;;;;5026319;28;20464;-51
2023/08/09 03:43:29;;;;;;;8.77;4.60;;;14.30;99.90;;;;;;5027411;28;20049;-53
2023/08/09 03:45:57;;;;;;;8.90;4.07;;;14.30;99.90;;;;;;5026286;28;20063;-49
2023/08/09 03:48:25;;;;;;;6.18;4.00;;;14.30;99.90;;;;;;5026086;28;20553;-50
2023/08/09 03:50:53;;;;;;;8.75;4.40;;;14.30;99.90;;;;;;5022900;28;20126;-53
2023/08/09 03:53:20;;;;;;;7.18;3.55;;;14.30;99.90;;;;;;5029577;28;20072;-54
2023/08/09 03:55:47;;;;;;;7.47;4.50;;;14.30;99.90;;;;;;5027471;28;20418;-53
2023/08/09 03:58:15;;;;;;;7.10;4.10;;;14.30;99.90;;;;;;5026030;28;20255;-56
2023/08/09 04:00:43;;;;;;;7.60;4.28;;;14.20;99.90;;;;;;5027517;28;20092;-54
2023/08/09 04:03:12;;;;;;;7.57;4.50;;;14.30;99.90;;;;;;5024829;28;20061;-51
2023/08/09 04:05:39;;;;;;;6.65;4.00;;;14.30;99.90;;;;;;5027359;28;20046;-53
2023/08/09 04:08:07;;;;;;;7.28;4.30;;;14.30;99.90;;;;;;5027500;28;20077;-55
2023/08/09 04:10:36;;;;;;;9.00;4.97;;;14.30;99.90;;;;;;5027329;28;20056;-51
2023/08/09 04:13:03;;;;;;;7.80;4.47;;;14.30;99.90;;;;;;5027585;28;20041;-52
2023/08/09 04:15:30;;;;;;;6.78;3.53;;;14.40;99.90;;;;;;5029744;28;20132;-51
2023/08/09 04:17:58;;;;;;;8.63;3.88;;;14.40;99.90;;;;;;5047344;28;20045;-49
2023/08/09 04:20:26;;;;;;;7.32;4.13;;;14.40;99.90;;;;;;5019564;28;20065;-52
2023/08/09 04:23:00;;;;;;;8.40;4.13;;;14.40;99.90;;;;;;5024294;28;20040;-54
2023/08/09 04:25:27;;;;;;;11.90;4.20;;;14.40;99.90;;;;;;5020942;28;20080;-54
2023/08/09 04:27:56;;;;;;;9.98;3.83;;;14.30;99.90;;;;;;5025902;28;20440;-50
2023/08/09 04:30:23;;;;;;;6.70;4.03;;;14.30;99.90;;;;;;5027537;28;20563;-53
2023/08/09 04:32:55;;;;;;;7.63;3.55;;;14.30;99.90;;;;;;5026773;28;20052;-59
2023/08/09 04:35:23;;;;;;;;;;;14.30;99.90;;;;;;5027383;28;20529;-57
2023/08/09 04:37:50;;;;;;;7.25;3.85;;;14.40;99.90;;;;;;5026991;28;19928;-51
2023/08/09 04:40:17;;;;;;;5.53;3.42;;;14.30;99.90;;;;;;5027517;28;20135;-52
2023/08/09 04:42:47;;;;;;;6.40;3.80;;;14.30;99.90;;;;;;5026833;28;20099;-52
2023/08/09 04:45:14;;;;;;;6.82;3.75;;;14.40;99.90;;;;;;5027982;28;20108;-53
2023/08/09 04:47:42;;;;;;;7.78;4.63;;;14.40;99.90;;;;;;5025286;28;20072;-53
2023/08/09 04:50:10;;;;;;;6.78;4.35;;;14.40;99.90;;;;;;5025799;28;20041;-54
2023/08/09 04:52:38;;;;;;;8.82;4.40;;;14.40;99.90;;;;;;5027424;28;20111;-58
2023/08/09 04:55:06;;;;;;;6.20;4.05;;;14.40;99.90;;;;;;5030614;28;20054;-55
2023/08/09 04:57:33;;;;;;;8.35;4.63;;;14.40;99.90;;;;;;5029066;28;20136;-54
2023/08/09 05:00:10;;;;;;;8.55;4.22;;;14.40;99.90;;;;;;5026996;28;20076;-54
2023/08/09 05:02:38;;;;;;;5.57;3.67;;;14.40;99.90;;;;;;5020787;28;20055;-49
2023/08/09 05:05:09;;;;;;;7.32;4.20;;;14.40;99.90;;;;;;5026167;28;20054;-55
2023/08/09 05:07:38;;;;;;;7.38;3.83;;;14.40;99.90;;;;;;5029363;28;20058;-52
2023/08/09 05:10:06;;;;;;;7.32;3.97;;;14.40;99.90;;;;;;5025063;28;20271;-51
2023/08/09 05:12:34;;;;;;;5.93;3.95;;;14.40;99.90;;;;;;5027319;28;20041;-52
2023/08/09 05:15:04;;;;;;;6.72;3.70;;;14.40;99.90;;;;;;5026238;28;20637;-51
2023/08/09 05:17:31;;;;;;;7.68;3.78;;;14.50;99.90;;;;;;5026564;28;20049;-56
2023/08/09 05:19:59;;;;;;;8.10;3.80;;;14.40;99.90;;;;;;5030005;28;20052;-59
2023/08/09 05:22:26;;;;;;;7.90;4.00;;;14.50;99.90;;;;;;5027172;28;20072;-49
2023/08/09 05:24:53;;;;;;;9.00;4.13;;;14.40;99.90;;;;;;5027263;28;20100;-57
2023/08/09 05:27:21;;;;;;;8.45;4.13;;;14.50;99.90;;;;;;5025780;28;20139;-55
2023/08/09 05:29:48;;;;;;;5.65;3.58;;;14.50;99.90;;;;;;5029427;28;20430;-52
2023/08/09 05:32:15;;;;;;;9.63;4.13;;;14.50;99.90;;;;;;5024522;28;20473;-51
2023/08/09 05:34:43;;;;;;;9.70;4.35;;;14.50;99.90;;;;;;5026705;28;20065;-53
2023/08/09 05:37:10;;;;;;;7.68;3.90;;;14.50;99.90;;;;;;5024098;28;20056;-51
2023/08/09 05:39:37;;;;;;;8.65;4.05;;;14.50;99.90;;;;;;5025893;28;20128;-57
2023/08/09 05:42:05;;;;;;;6.55;4.05;;;14.50;99.90;;;;;;5028780;28;20157;-52
2023/08/09 05:44:33;;;;;;;8.35;4.38;;;14.50;99.90;;;;;;5029073;28;20418;-53
2023/08/09 05:47:02;;;;;;;9.25;4.20;;;14.50;99.90;;;;;;5030843;28;20049;-54
2023/08/09 05:49:30;;;;;;;6.53;3.85;;;14.50;99.90;;;;;;5030128;28;20081;-56
2023/08/09 05:51:57;;;;;;;13.13;4.35;;;14.50;99.90;;;;;;5025638;28;20584;-52
2023/08/09 05:54:25;;;;;;;6.53;3.90;;;14.50;99.90;;;;;;5026168;28;20130;-54
2023/08/09 05:56:52;;;;;;;8.23;4.07;;;14.50;99.90;;;;;;5025966;28;20538;-53
2023/08/09 05:59:19;;;;;;;6.90;4.15;;;14.60;99.90;;;;;;5024885;28;20160;-52
2023/08/09 06:01:47;;;;;;;7.28;4.00;;;14.60;99.90;;;;;;5024220;28;20076;-53
2023/08/09 06:04:14;;;;;;;8.55;4.20;;;14.60;99.90;;;;;;5028756;28;20049;-54
2023/08/09 06:06:42;;;;;;;9.52;5.75;;;14.70;99.90;;;;;;5030005;28;20472;-49
2023/08/09 06:09:10;;;;;;;7.47;3.70;;;14.60;99.90;;;;;;5028629;28;20107;-51
2023/08/09 06:11:37;;;;;;;7.22;3.50;;;14.60;99.90;;;;;;5029788;28;20055;-51
2023/08/09 06:14:05;;;;;;;6.88;3.88;;;14.70;99.90;;;;;;5029935;28;20049;-50
2023/08/09 06:16:34;;;;;;;6.13;3.40;;;14.70;99.90;;;;;;5028637;28;20037;-54
2023/08/09 06:19:02;;;;;;;8.05;4.20;;;14.80;99.90;;;;;;5019227;28;20120;-53
2023/08/09 06:21:29;;;;;;;6.97;3.90;;;14.80;99.90;;;;;;5029511;28;20073;-53
2023/08/09 06:23:57;;;;;;;7.00;4.35;;;14.90;99.90;;;;;;5028183;28;20132;-56
2023/08/09 06:26:25;;;;;;;7.10;3.92;;;14.90;99.90;;;;;;5027257;28;20049;-54
2023/08/09 06:28:52;;;;;;;10.35;4.22;;;14.90;99.90;;;;;;5028794;28;20162;-51
2023/08/09 06:31:20;;;;;;;6.20;3.50;;;14.90;99.90;;;;;;5027435;28;20115;-56
2023/08/09 06:33:47;;;;;;;6.05;3.53;;;15.00;99.90;;;;;;5026863;28;20045;-56
2023/08/09 06:36:16;;;;;;;6.68;3.78;;;15.00;99.90;;;;;;5024841;28;20100;-56
2023/08/09 06:38:43;;;;;;;8.80;3.70;;;15.10;99.90;;;;;;5026058;28;20091;-55
2023/08/09 06:41:10;;;;;;;9.57;3.80;;;15.10;99.90;;;;;;5025152;28;20742;-55
2023/08/09 06:43:38;;;;;;;6.45;3.78;;;15.10;99.90;;;;;;5027331;28;20056;-53
2023/08/09 06:46:05;;;;;;;6.72;3.80;;;15.10;99.90;;;;;;5026243;28;20399;-57
2023/08/09 06:48:34;;;;;;;8.30;4.30;;;15.20;99.90;;;;;;5028434;28;20131;-58
2023/08/09 06:51:01;;;;;;;6.65;3.88;;;15.20;99.90;;;;;;5026445;28;20132;-56
2023/08/09 06:53:29;;;;;;;6.50;4.03;;;15.30;99.90;;;;;;5030933;28;20117;-52
2023/08/09 06:55:56;;;;;;;7.63;3.88;;;15.40;99.90;;;;;;5028779;28;20069;-53
2023/08/09 06:58:24;;;;;;;6.95;3.88;;;15.50;99.90;;;;;;5029426;28;20577;-52
2023/08/09 07:00:51;;;;;;;6.70;3.40;;;15.50;99.90;;;;;;5027585;28;20054;-53
2023/08/09 07:03:20;;;;;;;7.80;3.40;;;15.60;99.90;;;;;;5028329;28;20065;-51
2023/08/09 07:05:47;;;;;;;5.60;3.15;;;15.70;99.90;;;;;;5029532;28;20050;-50
2023/08/09 07:08:14;;;;;;;5.15;3.55;;;15.80;99.90;;;;;;5028782;28;20531;-50
2023/08/09 07:10:42;;;;;;;5.60;3.38;;;15.80;99.90;;;;;;5029936;28;20053;-54
2023/08/09 07:13:09;;;;;;;7.07;3.25;;;15.90;99.90;;;;;;5028683;28;20056;-48
2023/08/09 07:15:37;;;;;;;12.07;5.68;;;16.00;99.90;;;;;;5029518;28;20554;-51
2023/08/09 07:18:05;;;;;;;5.75;3.47;;;16.10;99.90;;;;;;5027235;28;20049;-49
2023/08/09 07:20:32;;;;;;;6.07;2.83;;;16.00;99.90;;;;;;5029184;28;20064;-54
2023/08/09 07:22:59;;;;;;;8.13;3.67;;;16.00;99.90;;;;;;5027759;28;20564;-48
2023/08/09 07:25:27;;;;;;;6.82;3.00;;;16.00;99.90;;;;;;5028673;28;20453;-48
2023/08/09 07:27:54;;;;;;;5.43;3.38;;;16.00;99.90;;;;;;5029965;28;20049;-55
2023/08/09 07:30:21;;;;;;;6.50;3.33;;;15.90;99.90;;;;;;5028613;28;20065;-48
2023/08/09 07:32:49;;;;;;;5.30;3.10;;;15.90;99.90;;;;;;5028657;28;20115;-52
2023/08/09 07:35:17;;;;;;;8.35;2.88;;;15.90;99.90;;;;;;5029663;28;20053;-51
2023/08/09 07:37:45;;;;;;;6.22;3.78;;;15.80;99.90;;;;;;5029017;28;20116;-51
2023/08/09 07:40:14;;;;;;;8.80;3.97;;;15.70;99.90;;;;;;5028037;28;20120;-55
2023/08/09 07:42:42;;;;;;;6.35;2.80;;;15.70;99.90;;;;;;5027806;28;20045;-51
2023/08/09 07:45:10;;;;;;;6.90;3.58;;;16.00;99.90;;;;;;5029257;28;20069;-53
2023/08/09 07:47:39;;;;;;;6.18;3.55;;;16.30;99.90;;;;;;5027047;28;20051;-52
2023/08/09 07:50:07;;;;;;;6.90;3.58;;;16.60;99.90;;;;;;5030928;28;20053;-50
2023/08/09 07:52:35;;;;;;;6.32;3.17;;;17.00;99.90;;;;;;5025530;28;20041;-51
2023/08/09 07:55:04;;;;;;;6.07;3.30;;;17.40;99.90;;;;;;5027642;28;20057;-50
2023/08/09 07:57:33;;;;;;;5.28;3.17;;;17.40;99.90;;;;;;5028732;28;20124;-53
2023/08/09 08:00:17;;;;;;;6.82;3.15;;;17.10;99.90;;;;;;5026758;28;20183;-52
2023/08/09 08:02:46;;;;;;;6.03;3.03;;;17.10;99.90;;;;;;5025598;28;20064;-53
2023/08/09 08:05:15;;;;;;;5.45;2.90;;;17.50;99.90;;;;;;5025293;28;20049;-57
2023/08/09 08:07:45;;;;;;;6.25;3.40;;;17.50;99.90;;;;;;5026127;28;20083;-54
2023/08/09 08:10:14;;;;;;;4.82;2.88;;;17.70;99.90;;;;;;5025975;28;20041;-55
2023/08/09 08:12:44;;;;;;;5.97;3.30;;;17.80;99.90;;;;;;5027414;28;20683;-55
2023/08/09 08:15:12;;;;;;;6.35;3.10;;;17.80;99.90;;;;;;5026639;28;20061;-55
2023/08/09 08:17:40;;;;;;;6.30;3.20;;;17.60;99.90;;;;;;5027425;28;20083;-54
2023/08/09 08:20:16;;;;;;;5.75;3.38;;;17.50;99.90;;;;;;5025894;28;20049;-54
2023/08/09 08:22:44;;;;;;;5.85;3.10;;;17.80;99.90;;;;;;5026682;28;20049;-52
2023/08/09 08:25:12;;;;;;;6.45;3.03;;;17.60;99.90;;;;;;5026180;28;20060;-55
2023/08/09 08:27:45;;;;;;;6.30;3.08;;;17.60;99.90;;;;;;5026770;28;20056;-50
2023/08/09 08:30:18;;;;;;;7.28;2.88;;;17.60;99.90;;;;;;5025826;28;20046;-52
2023/08/09 08:32:46;;;;;;;5.63;3.10;;;17.60;99.90;;;;;;5027290;28;20073;-55
2023/08/09 08:35:19;;;;;;;6.07;3.00;;;17.80;99.90;;;;;;5025710;28;20422;-55
2023/08/09 08:37:53;;;;;;;5.85;2.80;;;17.70;99.90;;;;;;5025782;28;20387;-53
2023/08/09 08:40:22;;;;;;;8.13;2.85;;;17.90;99.90;;;;;;5026875;28;20119;-53
2023/08/09 08:42:50;;;;;;;5.90;2.92;;;17.80;99.90;;;;;;5025834;28;20095;-50
2023/08/09 08:45:19;;;;;;;5.22;3.17;;;17.70;99.90;;;;;;5025886;28;20037;-53
2023/08/09 08:47:47;;;;;;;4.72;2.70;;;17.60;99.90;;;;;;5024980;28;20073;-56
2023/08/09 08:50:17;;;;;;;5.68;2.65;;;17.60;99.90;;;;;;5026355;28;20057;-53
2023/08/09 08:52:47;;;;;;;7.18;3.10;;;17.60;99.90;;;;;;5027558;28;20036;-51
2023/08/09 08:55:15;;;;;;;5.40;3.15;;;17.60;99.90;;;;;;5028894;28;20114;-51
2023/08/09 08:57:45;;;;;;;6.45;3.30;;;17.60;99.90;;;;;;5026869;28;20368;-49
2023/08/09 09:00:17;;;;;;;5.07;2.40;;;17.60;99.90;;;;;;5026739;28;20132;-55
2023/08/09 09:02:47;;;;;;;5.82;2.38;;;17.50;99.90;;;;;;5025496;28;20151;-54
2023/08/09 09:05:17;;;;;;;8.60;2.65;;;17.40;99.90;;;;;;5025905;28;20070;-54
2023/08/09 09:07:46;;;;;;;5.57;2.33;;;17.30;99.90;;;;;;5026017;28;20099;-53
2023/08/09 09:10:13;;;;;;;4.38;2.17;;;17.30;99.90;;;;;;5024356;28;20061;-56
2023/08/09 09:12:41;;;;;;;5.53;2.72;;;17.30;99.90;;;;;;5025035;28;20510;-56
2023/08/09 09:15:09;;;;;;;5.10;2.58;;;17.10;99.90;;;;;;5026131;28;20044;-53
2023/08/09 09:17:42;;;;;;;6.70;3.00;;;17.10;99.90;;;;;;5025092;28;20049;-52
2023/08/09 09:20:23;;;;;;;6.60;2.58;;;17.10;99.90;;;;;;5025410;28;20088;-51
2023/08/09 09:22:52;;;;;;;5.55;2.60;;;17.00;99.90;;;;;;5020863;28;20076;-55
2023/08/09 09:25:22;;;;;;;7.40;3.00;;;17.00;99.90;;;;;;5022455;28;20053;-52
2023/08/09 09:27:56;;;;;;;8.38;3.40;;;17.00;99.90;;;;;;5026219;28;20049;-58
2023/08/09 09:30:24;;;;;;;7.20;3.00;;;17.10;99.90;;;;;;5026544;28;20048;-51
2023/08/09 09:32:54;;;;;;;6.60;2.92;;;17.00;99.90;;;;;;5025471;28;20045;-53
2023/08/09 09:35:26;;;;;;;7.82;3.13;;;17.10;99.90;;;;;;5026189;28;20045;-53
2023/08/09 09:37:55;;;;;;;6.35;3.28;;;17.00;99.90;;;;;;5023700;28;20042;-52
2023/08/09 09:40:34;;;;;;;7.72;3.70;;;16.80;99.90;;;;;;5025553;28;20095;-50
2023/08/09 09:43:04;;;;;;;6.53;3.53;;;16.80;99.90;;;;;;5026438;28;20117;-52
2023/08/09 09:45:33;;;;;;;6.40;3.08;;;16.80;99.90;;;;;;5027084;28;20053;-53
2023/08/09 09:48:04;;;;;;;7.32;3.08;;;16.80;99.90;;;;;;5025228;28;20415;-51
2023/08/09 09:50:33;;;;;;;7.97;3.70;;;16.80;99.90;;;;;;5026119;28;20053;-50
2023/08/09 09:53:02;;;;;;;5.15;3.20;;;16.80;99.90;;;;;;5025195;28;20046;-47
2023/08/09 09:55:30;;;;;;;5.93;3.63;;;16.90;99.90;;;;;;5025630;28;20042;-52
2023/08/09 09:57:58;;;;;;;5.28;3.03;;;17.00;99.90;;;;;;5026067;28;20044;-52
2023/08/09 10:00:27;;;;;;;5.35;3.20;;;17.10;99.90;;;;;;5025072;28;20148;-52
2023/08/09 10:02:59;;;;;;;9.48;3.03;;;17.40;99.90;;;;;;5025674;28;20045;-52
2023/08/09 10:05:35;;;;;;;8.90;3.33;;;17.70;99.90;;;;;;5018871;28;20583;-55
2023/08/09 10:08:08;;;;;;;6.13;3.13;;;18.00;99.90;;;;;;5025813;28;20103;-50
2023/08/09 10:10:43;;;;;;;5.15;2.83;;;18.20;99.90;;;;;;5025044;28;20041;-51
2023/08/09 10:13:19;;;;;;;4.93;3.10;;;18.30;99.90;;;;;;5025164;28;20068;-56
2023/08/09 10:15:54;;;;;;;6.18;2.67;;;18.40;99.90;;;;;;5025853;28;20048;-54
2023/08/09 10:18:26;;;;;;;5.80;3.13;;;18.40;99.90;;;;;;5026086;28;20132;-52
2023/08/09 10:20:57;;;;;;;6.97;2.97;;;18.50;99.90;;;;;;5025641;28;20044;-52
2023/08/09 10:23:29;;;;;;;5.38;2.65;;;18.70;99.90;;;;;;5019400;28;20103;-52
2023/08/09 10:25:57;;;;;;;8.35;2.60;;;18.80;99.90;;;;;;5026037;28;20045;-49
2023/08/09 10:28:42;;;;;;;5.03;2.58;;;18.80;99.90;;;;;;5019131;28;20080;-50
2023/08/09 10:31:09;;;;;;;5.78;2.60;;;18.90;99.90;;;;;;5024883;28;20065;-49
2023/08/09 10:34:00;;;;;;;5.90;2.10;;;19.20;99.90;;;;;;5025473;28;20042;-51
2023/08/09 10:36:34;;;;;;;5.03;2.30;;;19.30;99.90;;;;;;5024016;28;20069;-48
2023/08/09 10:39:16;;;;;;;3.65;2.10;;;19.50;99.90;;;;;;5025256;28;20099;-51
2023/08/09 10:41:57;;;;;;;7.00;2.70;;;19.50;99.90;;;;;;5025119;28;20037;-52
2023/08/09 10:44:40;;;;;;;5.35;2.42;;;19.20;99.90;;;;;;5025524;28;20115;-51
2023/08/09 10:47:14;;;;;;;8.27;2.92;;;19.10;99.90;;;;;;5025212;28;20557;-50
2023/08/09 10:49:47;;;;;;;5.15;2.33;;;19.10;99.90;;;;;;5028643;28;20065;-53
2023/08/09 10:52:19;;;;;;;6.10;2.40;;;18.90;99.90;;;;;;5028006;28;20056;-56
2023/08/09 10:55:18;;;;;;;6.10;2.67;;;18.40;99.90;;;;;;5028910;28;20056;-54
2023/08/09 10:57:50;;;;;;;7.10;2.70;;;18.00;99.90;;;;;;5029010;28;20073;-54
2023/08/09 11:00:18;;;;;;;;;;;17.90;99.90;;;;;;5029340;28;20056;-49
2023/08/09 11:02:47;;;;;;;4.90;2.78;;;17.70;99.90;;;;;;5029129;28;19932;-49
2023/08/09 11:05:16;;;;;;;7.78;2.50;;;17.70;99.90;;;;;;5028063;28;20140;-51
2023/08/09 11:07:50;;;;;;;4.95;3.08;;;17.80;99.90;;;;;;5025843;28;20124;-52
2023/08/09 11:10:35;;;;;;;5.55;2.22;;;18.00;99.90;;;;;;5022975;28;20457;-49
2023/08/09 11:13:12;;;;;;;4.40;2.30;;;18.20;99.90;;;;;;5024788;28;20414;-51
2023/08/09 11:15:45;;;;;;;4.95;2.08;;;18.40;99.90;;;;;;5026661;28;20445;-58
2023/08/09 11:18:13;;;;;;;4.32;2.13;;;18.60;99.90;;;;;;5026952;28;21064;-58
2023/08/09 11:20:40;;;;;;;4.20;1.92;;;18.60;99.90;;;;;;5026345;28;20041;-54
2023/08/09 11:23:08;;;;;;;3.85;1.85;;;18.70;99.90;;;;;;5025480;28;20049;-50
2023/08/09 11:25:39;;;;;;;3.92;1.70;;;18.80;99.90;;;;;;5028549;28;20442;-52
2023/08/09 11:28:11;;;;;;;5.00;1.77;;;19.00;99.90;;;;;;5022330;28;20053;-54
2023/08/09 11:30:38;;;;;;;4.97;1.88;;;19.00;99.90;;;;;;5025482;28;20041;-55
2023/08/09 11:33:06;;;;;;;3.75;1.70;;;18.90;99.90;;;;;;5027461;28;20052;-55
2023/08/09 11:35:42;;;;;;;3.55;1.90;;;19.10;99.90;;;;;;5028852;28;20037;-55
2023/08/09 11:38:12;;;;;;;4.28;1.80;;;19.10;99.90;;;;;;5027331;28;20128;-54
2023/08/09 11:40:42;;;;;;;4.55;1.80;;;19.30;99.90;;;;;;5027786;28;20073;-51
2023/08/09 11:43:14;;;;;;;3.40;1.67;;;19.60;99.90;;;;;;5028166;28;20139;-52
2023/08/09 11:45:50;;;;;;;2.60;1.48;;;20.00;99.90;;;;;;5025045;28;20073;-52
2023/08/09 11:48:39;;;;;;;4.70;1.40;;;20.20;99.90;;;;;;5024988;28;20128;-52
2023/08/09 11:51:07;;;;;;;3.17;1.38;;;20.40;99.90;;;;;;5026885;28;20495;-54
2023/08/09 11:53:36;;;;;;;3.85;1.30;;;20.40;99.90;;;;;;5026488;28;20073;-53
2023/08/09 11:56:07;;;;;;;3.08;1.52;;;20.50;99.90;;;;;;5026816;28;20045;-54
2023/08/09 11:58:41;;;;;;;2.10;1.30;;;20.40;99.90;;;;;;5026981;28;20481;-48
2023/08/09 12:01:18;;;;;;;2.47;1.30;;;20.00;99.90;;;;;;5024982;28;20525;-52
2023/08/09 12:03:48;;;;;;;3.70;1.63;;;20.00;99.90;;;;;;5027619;28;20042;-54
2023/08/09 12:06:17;;;;;;;2.90;1.45;;;19.70;99.90;;;;;;5026157;28;20045;-54
2023/08/09 12:08:45;;;;;;;5.00;1.45;;;19.70;99.90;;;;;;5028275;28;20056;-51
2023/08/09 12:11:16;;;;;;;3.05;1.50;;;19.60;99.90;;;;;;5026587;28;20385;-48
2023/08/09 12:13:43;;;;;;;2.45;1.30;;;19.50;99.90;;;;;;5025613;28;20525;-53
2023/08/09 12:16:11;;;;;;;2.67;1.30;;;19.30;99.90;;;;;;5021995;28;20046;-53
2023/08/09 12:18:38;;;;;;;1.70;1.20;;;19.40;99.90;;;;;;5027013;28;20469;-54
2023/08/09 12:21:08;;;;;;;1.83;1.10;;;19.40;99.90;;;;;;5026041;28;20041;-51
2023/08/09 12:23:37;;;;;;;2.53;1.08;;;19.60;99.90;;;;;;5028004;28;20099;-52
2023/08/09 12:26:07;;;;;;;1.90;1.33;;;19.80;99.90;;;;;;5019433;28;20057;-50
2023/08/09 12:28:35;;;;;;;2.00;1.50;;;19.90;99.90;;;;;;5025640;28;20049;-50
2023/08/09 12:31:02;;;;;;;2.83;1.30;;;19.90;99.90;;;;;;5025506;28;20046;-55
2023/08/09 12:33:30;;;;;;;2.33;1.30;;;20.30;99.90;;;;;;5025523;28;20049;-50
2023/08/09 12:35:57;;;;;;;1.95;1.33;;;20.70;99.90;;;;;;5025740;28;20202;-52
2023/08/09 12:38:24;;;;;;;3.33;1.52;;;20.80;99.90;;;;;;5026104;28;20159;-49
2023/08/09 12:40:52;;;;;;;3.15;1.50;;;21.00;99.90;;;;;;5024717;28;20526;-55
2023/08/09 12:43:19;;;;;;;2.28;1.55;;;21.10;99.90;;;;;;5026178;28;20058;-50
2023/08/09 12:45:47;;;;;;;2.42;1.63;;;20.70;99.90;;;;;;5027343;28;20092;-59
2023/08/09 12:48:15;;;;;;;3.83;1.77;;;20.70;99.90;;;;;;5026098;28;20053;-52
2023/08/09 12:50:42;;;;;;;2.67;1.77;;;20.70;99.90;;;;;;5024670;28;20052;-52
2023/08/09 12:53:10;;;;;;;2.22;1.67;;;20.50;99.90;;;;;;5026431;28;20049;-52
2023/08/09 12:55:37;;;;;;;2.17;1.58;;;20.20;99.90;;;;;;5027617;28;20049;-48
2023/08/09 12:58:05;;;;;;;2.50;1.73;;;20.20;99.90;;;;;;5025516;28;20051;-59